createdAt,value
2019-03-30T00:01:12.498Z,70.24
2019-03-30T00:03:45.331Z,70.23
2019-03-30T00:06:18.029Z,70.37
2019-03-30T00:08:50.598Z,70.33
2019-03-30T00:11:23.400Z,70.48
2019-03-30T00:13:56.038Z,70.31
2019-03-30T00:16:28.618Z,70.18
2019-03-30T00:19:01.171Z,70.00
2019-03-30T00:21:33.668Z,70.04
2019-03-30T00:24:06.338Z,70.09
2019-03-30T00:26:38.840Z,70.31
2019-03-30T00:29:11.387Z,70.32
2019-03-30T00:31:44.050Z,70.25
2019-03-30T00:34:16.856Z,70.21
2019-03-30T00:36:49.428Z,70.28
2019-03-30T00:39:21.977Z,70.37
2019-03-30T00:41:54.487Z,70.46
2019-03-30T00:44:26.878Z,70.30
2019-03-30T00:46:59.567Z,70.50
2019-03-30T00:49:32.457Z,70.47
2019-03-30T00:52:05.356Z,70.58
2019-03-30T00:54:38.143Z,70.58
2019-03-30T00:57:10.657Z,70.85
2019-03-30T00:59:43.345Z,71.10
2019-03-30T01:02:16.157Z,70.85
2019-03-30T01:04:48.998Z,70.82
2019-03-30T01:07:21.857Z,70.73
2019-03-30T01:09:57.817Z,70.80
2019-03-30T01:12:31.048Z,70.79
2019-03-30T01:15:04.216Z,70.82
2019-03-30T01:17:37.990Z,70.84
2019-03-30T01:20:10.976Z,70.94
2019-03-30T01:22:43.817Z,70.93
2019-03-30T01:25:16.656Z,71.42
2019-03-30T01:27:49.497Z,70.90
2019-03-30T01:30:23.681Z,70.84
2019-03-30T01:33:03.860Z,70.86
2019-03-30T01:35:36.967Z,71.03
2019-03-30T01:38:10.017Z,70.87
2019-03-30T01:40:43.037Z,70.99
2019-03-30T01:43:15.836Z,70.61
2019-03-30T01:45:48.679Z,70.62
2019-03-30T01:48:21.307Z,70.73
2019-03-30T01:50:54.202Z,70.66
2019-03-30T01:53:26.838Z,70.63
2019-03-30T01:55:59.916Z,70.71
2019-03-30T01:58:32.666Z,70.83
2019-03-30T02:01:05.737Z,70.77
2019-03-30T02:03:39.755Z,70.98
2019-03-30T02:06:12.514Z,70.79
2019-03-30T02:08:45.617Z,71.05
2019-03-30T02:11:18.374Z,70.77
2019-03-30T02:13:51.546Z,70.74
2019-03-30T02:16:24.197Z,70.91
2019-03-30T02:18:56.980Z,70.88
2019-03-30T02:21:33.899Z,71.02
2019-03-30T02:24:06.946Z,71.08
2019-03-30T02:26:47.887Z,71.14
2019-03-30T02:29:22.197Z,71.22
2019-03-30T02:31:55.248Z,71.39
2019-03-30T02:34:28.371Z,71.38
2019-03-30T02:37:01.361Z,71.22
2019-03-30T02:39:34.295Z,71.39
2019-03-30T02:42:07.252Z,71.80
2019-03-30T02:44:40.036Z,71.56
2019-03-30T02:47:12.930Z,71.61
2019-03-30T02:49:46.483Z,71.58
2019-03-30T02:52:19.096Z,71.59
2019-03-30T02:54:51.785Z,72.16
2019-03-30T02:57:24.580Z,71.24
2019-03-30T02:59:57.656Z,70.82
2019-03-30T03:02:30.256Z,70.75
2019-03-30T03:05:03.097Z,70.71
2019-03-30T03:07:36.688Z,70.70
2019-03-30T03:10:10.216Z,70.54
2019-03-30T03:12:42.951Z,70.34
2019-03-30T03:15:15.966Z,70.33
2019-03-30T03:17:48.736Z,70.40
2019-03-30T03:20:21.461Z,70.38
2019-03-30T03:22:54.367Z,70.51
2019-03-30T03:25:27.047Z,70.43
2019-03-30T03:27:59.909Z,70.40
2019-03-30T03:30:32.588Z,70.59
2019-03-30T03:33:05.608Z,70.60
2019-03-30T03:35:38.213Z,70.73
2019-03-30T03:38:11.018Z,70.85
2019-03-30T03:40:43.805Z,70.87
2019-03-30T03:43:16.733Z,71.05
2019-03-30T03:45:49.465Z,71.32
2019-03-30T03:48:22.458Z,71.47
2019-03-30T03:51:01.768Z,71.21
2019-03-30T03:53:36.109Z,71.32
2019-03-30T03:56:10.122Z,71.55
2019-03-30T03:58:43.909Z,71.38
2019-03-30T04:01:19.167Z,71.41
2019-03-30T04:03:54.237Z,71.46
2019-03-30T04:06:28.387Z,71.50
2019-03-30T04:09:03.905Z,71.44
2019-03-30T04:11:38.663Z,71.49
2019-03-30T04:14:14.454Z,71.77
2019-03-30T04:16:46.986Z,71.51
2019-03-30T04:19:19.918Z,71.52
2019-03-30T04:21:52.669Z,71.29
2019-03-30T04:24:26.567Z,71.22
2019-03-30T04:26:59.330Z,71.36
2019-03-30T04:29:32.159Z,71.47
2019-03-30T04:32:04.829Z,71.63
2019-03-30T04:34:37.847Z,71.25
2019-03-30T04:37:11.917Z,71.19
2019-03-30T04:39:45.022Z,71.07
2019-03-30T04:42:18.027Z,71.11
2019-03-30T04:44:51.007Z,71.18
2019-03-30T04:47:23.678Z,71.22
2019-03-30T04:49:56.677Z,71.85
2019-03-30T04:52:29.325Z,71.20
2019-03-30T04:55:02.157Z,71.22
2019-03-30T04:57:34.756Z,71.34
2019-03-30T05:00:08.322Z,71.26
2019-03-30T05:02:41.027Z,71.01
2019-03-30T05:05:14.037Z,71.04
2019-03-30T05:07:46.858Z,70.88
2019-03-30T05:10:19.776Z,70.98
2019-03-30T05:12:52.856Z,71.05
2019-03-30T05:15:25.667Z,71.15
2019-03-30T05:18:00.117Z,71.15
2019-03-30T05:20:32.915Z,71.41
2019-03-30T05:23:05.895Z,71.59
2019-03-30T05:25:39.006Z,71.40
2019-03-30T05:28:11.881Z,71.27
2019-03-30T05:30:44.597Z,71.22
2019-03-30T05:33:17.437Z,71.40
2019-03-30T05:35:50.179Z,71.48
2019-03-30T05:38:23.192Z,71.21
2019-03-30T05:40:56.054Z,71.72
2019-03-30T05:43:29.816Z,71.41
2019-03-30T05:46:02.765Z,71.17
2019-03-30T05:48:35.619Z,71.20
2019-03-30T05:51:08.257Z,71.22
2019-03-30T05:53:41.065Z,70.93
2019-03-30T05:56:13.921Z,71.26
2019-03-30T05:58:47.296Z,71.05
2019-03-30T06:01:21.280Z,70.88
2019-03-30T06:03:54.167Z,70.83
2019-03-30T06:06:26.867Z,70.70
2019-03-30T06:08:59.797Z,70.44
2019-03-30T06:11:32.547Z,70.42
2019-03-30T06:14:05.537Z,70.35
2019-03-30T06:16:38.418Z,70.13
2019-03-30T06:19:11.327Z,70.00
2019-03-30T06:21:44.136Z,70.05
2019-03-30T06:24:16.917Z,69.76
2019-03-30T06:26:49.952Z,69.71
2019-03-30T06:29:23.197Z,69.72
2019-03-30T06:31:56.015Z,69.69
2019-03-30T06:34:28.876Z,69.53
2019-03-30T06:37:01.748Z,69.73
2019-03-30T06:39:37.039Z,69.36
2019-03-30T06:42:09.426Z,69.10
2019-03-30T06:44:42.398Z,68.97
2019-03-30T06:47:15.243Z,68.79
2019-03-30T06:49:48.007Z,68.71
2019-03-30T06:52:20.847Z,68.27
2019-03-30T06:54:53.787Z,68.52
2019-03-30T06:57:26.727Z,68.21
2019-03-30T06:59:59.665Z,68.19
2019-03-30T07:02:32.467Z,67.93
2019-03-30T07:05:05.617Z,67.74
2019-03-30T07:07:40.397Z,67.60
2019-03-30T07:10:13.476Z,67.55
2019-03-30T07:12:50.067Z,67.56
2019-03-30T07:15:23.776Z,67.22
2019-03-30T07:17:59.657Z,67.01
2019-03-30T07:20:33.136Z,67.10
2019-03-30T07:23:11.969Z,67.05
2019-03-30T07:25:39.837Z,67.00
2019-03-30T07:28:12.395Z,66.79
2019-03-30T07:30:45.023Z,66.61
2019-03-30T07:33:17.597Z,66.48
2019-03-30T07:35:50.337Z,66.05
2019-03-30T07:38:22.827Z,66.13
2019-03-30T07:40:55.778Z,66.38
2019-03-30T07:43:28.376Z,66.31
2019-03-30T07:46:01.099Z,66.16
2019-03-30T07:48:33.735Z,65.99
2019-03-30T07:51:06.639Z,66.12
2019-03-30T07:53:44.595Z,65.80
2019-03-30T07:56:13.644Z,65.41
2019-03-30T07:58:46.517Z,65.41
2019-03-30T08:01:19.264Z,65.26
2019-03-30T08:03:52.289Z,65.34
2019-03-30T08:06:26.517Z,65.23
2019-03-30T08:08:59.257Z,65.39
2019-03-30T08:11:31.937Z,65.25
2019-03-30T08:14:04.896Z,64.97
2019-03-30T08:16:38.087Z,64.98
2019-03-30T08:19:11.341Z,64.86
2019-03-30T08:21:44.456Z,64.86
2019-03-30T08:24:17.111Z,64.77
2019-03-30T08:26:50.087Z,64.54
2019-03-30T08:29:22.729Z,64.33
2019-03-30T08:31:55.460Z,64.33
2019-03-30T08:34:28.467Z,64.29
2019-03-30T08:37:01.615Z,64.11
2019-03-30T08:39:35.503Z,63.95
2019-03-30T08:42:09.547Z,63.80
2019-03-30T08:44:43.456Z,63.13
2019-03-30T08:47:16.308Z,63.83
2019-03-30T08:49:50.758Z,63.71
2019-03-30T08:52:27.507Z,63.66
2019-03-30T08:55:00.381Z,63.52
2019-03-30T08:57:33.268Z,63.44
2019-03-30T09:00:07.613Z,63.21
2019-03-30T09:02:41.106Z,63.15
2019-03-30T09:05:23.597Z,63.00
2019-03-30T09:07:56.858Z,62.83
2019-03-30T09:10:32.617Z,62.51
2019-03-30T09:13:20.477Z,62.77
2019-03-30T09:16:17.437Z,62.47
2019-03-30T09:18:50.867Z,62.68
2019-03-30T09:21:29.310Z,61.93
2019-03-30T09:24:09.828Z,62.44
2019-03-30T09:26:43.067Z,61.90
2019-03-30T09:29:19.810Z,62.41
2019-03-30T09:32:14.585Z,62.03
2019-03-30T09:34:44.508Z,61.79
2019-03-30T09:37:18.740Z,62.00
2019-03-30T09:39:51.367Z,61.54
2019-03-30T09:42:25.438Z,61.29
2019-03-30T09:44:58.537Z,60.28
2019-03-30T09:47:31.547Z,60.71
2019-03-30T09:50:04.766Z,60.19
2019-03-30T09:52:37.554Z,60.51
2019-03-30T09:55:10.686Z,60.52
2019-03-30T09:57:43.357Z,60.60
2019-03-30T10:00:37.357Z,60.17
2019-03-30T10:03:13.987Z,60.10
2019-03-30T10:05:48.275Z,59.91
2019-03-30T10:08:23.537Z,59.56
2019-03-30T10:10:56.257Z,59.42
2019-03-30T10:13:29.229Z,59.63
2019-03-30T10:16:02.028Z,59.46
2019-03-30T10:18:36.237Z,58.79
2019-03-30T10:21:11.300Z,59.58
2019-03-30T10:23:53.839Z,59.69
2019-03-30T10:26:30.870Z,58.90
2019-03-30T10:29:05.717Z,58.81
2019-03-30T10:32:15.300Z,58.74
2019-03-30T10:37:39.938Z,57.18
2019-03-30T10:40:14.317Z,56.06
2019-03-30T10:42:46.818Z,54.84
2019-03-30T10:45:19.685Z,55.62
2019-03-30T10:47:52.227Z,53.93
2019-03-30T10:50:24.919Z,51.77
2019-03-30T10:52:57.448Z,49.66
2019-03-30T10:55:30.046Z,48.86
2019-03-30T10:58:02.801Z,46.01
2019-03-30T11:00:42.476Z,46.32
2019-03-30T11:03:15.466Z,46.91
2019-03-30T11:05:48.087Z,46.48
2019-03-30T11:08:20.738Z,46.68
2019-03-30T11:10:53.476Z,49.95
2019-03-30T11:13:26.009Z,50.60
2019-03-30T11:15:58.598Z,49.30
2019-03-30T11:18:31.130Z,47.63
2019-03-30T11:21:05.057Z,49.31
2019-03-30T11:23:37.867Z,48.37
2019-03-30T11:26:10.437Z,45.44
2019-03-30T11:28:43.176Z,45.90
2019-03-30T11:31:15.786Z,44.52
2019-03-30T11:33:48.369Z,45.84
2019-03-30T11:36:21.039Z,44.29
2019-03-30T11:38:54.718Z,44.73
2019-03-30T11:41:27.357Z,46.67
2019-03-30T11:44:00.026Z,46.73
2019-03-30T11:46:32.794Z,47.57
2019-03-30T11:49:05.897Z,47.55
2019-03-30T11:51:39.886Z,46.42
2019-03-30T11:54:12.796Z,49.29
2019-03-30T11:56:57.366Z,47.90
2019-03-30T11:59:30.342Z,45.79
2019-03-30T12:02:07.307Z,44.49
2019-03-30T12:04:42.696Z,45.34
2019-03-30T12:07:21.116Z,44.98
2019-03-30T12:09:53.851Z,42.61
2019-03-30T12:12:37.537Z,44.49
2019-03-30T12:15:17.066Z,43.25
2019-03-30T12:17:49.654Z,44.67
2019-03-30T12:20:22.486Z,45.55
2019-03-30T12:22:55.141Z,42.36
2019-03-30T12:25:35.468Z,44.12
2019-03-30T12:28:19.986Z,46.41
2019-03-30T12:30:52.588Z,46.49
2019-03-30T12:33:25.636Z,47.02
2019-03-30T12:35:58.237Z,46.74
2019-03-30T12:38:30.758Z,45.50
2019-03-30T12:41:13.417Z,46.70
2019-03-30T12:43:45.947Z,46.67
2019-03-30T12:46:18.444Z,46.62
2019-03-30T12:48:51.391Z,46.39
2019-03-30T12:51:46.317Z,46.08
2019-03-30T12:54:27.835Z,44.84
2019-03-30T12:57:52.339Z,45.86
2019-03-30T13:00:34.273Z,42.66
2019-03-30T13:03:12.697Z,45.61
2019-03-30T13:05:46.918Z,44.88
2019-03-30T13:08:25.608Z,44.41
2019-03-30T13:11:02.138Z,43.76
2019-03-30T13:14:06.159Z,44.31
2019-03-30T13:16:43.306Z,45.09
2019-03-30T13:19:59.545Z,42.18
2019-03-30T13:22:35.781Z,43.60
2019-03-30T13:25:08.870Z,41.67
2019-03-30T13:27:43.149Z,43.46
2019-03-30T13:30:16.477Z,43.03
2019-03-30T13:32:49.127Z,42.93
2019-03-30T13:35:24.598Z,42.05
2019-03-30T13:38:15.227Z,44.25
2019-03-30T13:40:49.048Z,44.11
2019-03-30T13:43:21.918Z,44.38
2019-03-30T13:45:54.637Z,44.77
2019-03-30T13:48:27.337Z,43.94
2019-03-30T13:51:00.049Z,43.64
2019-03-30T13:53:38.628Z,41.90
2019-03-30T13:56:17.073Z,45.04
2019-03-30T13:58:43.951Z,42.79
2019-03-30T14:01:17.052Z,44.80
2019-03-30T14:03:49.808Z,44.22
2019-03-30T14:06:22.397Z,42.92
2019-03-30T14:08:54.986Z,43.76
2019-03-30T14:11:27.812Z,44.14
2019-03-30T14:14:08.869Z,43.45
2019-03-30T14:16:48.007Z,43.04
2019-03-30T14:19:27.454Z,42.98
2019-03-30T14:22:03.057Z,43.91
2019-03-30T14:24:36.031Z,42.96
2019-03-30T14:27:11.750Z,43.45
2019-03-30T14:29:45.149Z,42.89
2019-03-30T14:32:20.028Z,42.78
2019-03-30T14:34:53.346Z,43.40
2019-03-30T14:37:28.796Z,43.80
2019-03-30T14:40:34.422Z,43.90
2019-03-30T14:43:25.917Z,44.41
2019-03-30T14:46:04.924Z,44.07
2019-03-30T14:49:04.597Z,43.08
2019-03-30T14:51:45.547Z,44.93
2019-03-30T14:54:24.347Z,45.14
2019-03-30T14:57:13.031Z,45.27
2019-03-30T14:59:50.050Z,45.71
2019-03-30T15:02:32.399Z,45.25
2019-03-30T15:05:13.629Z,45.29
2019-03-30T15:11:17.971Z,45.44
2019-03-30T15:13:50.757Z,46.27
2019-03-30T15:17:20.997Z,46.36
2019-03-30T15:20:32.312Z,46.37
2019-03-30T15:24:02.337Z,46.77
2019-03-30T15:26:59.861Z,46.85
2019-03-30T15:33:26.937Z,47.40
2019-03-30T15:43:43.288Z,47.77
2019-03-30T15:47:04.678Z,48.13
2019-03-30T15:50:38.356Z,48.31
2019-03-30T15:53:46.231Z,48.55
2019-03-30T15:55:25.897Z,47.44
2019-03-30T15:56:34.376Z,49.24
2019-03-30T15:59:36.547Z,49.78
2019-03-30T16:10:59.411Z,51.27
2019-03-30T16:12:32.247Z,51.83
2019-03-30T16:22:32.826Z,54.62
2019-03-30T16:25:25.200Z,55.85
2019-03-30T16:27:59.042Z,56.49
2019-03-30T16:30:58.967Z,57.06
2019-03-30T16:33:43.017Z,57.27
2019-03-30T16:36:38.096Z,57.87
2019-03-30T16:39:21.446Z,58.48
2019-03-30T16:41:53.698Z,58.90
2019-03-30T16:44:51.907Z,59.32
2019-03-30T16:50:17.737Z,59.72
2019-03-30T16:52:54.186Z,59.75
2019-03-30T16:55:29.957Z,60.11
2019-03-30T16:58:12.408Z,60.35
2019-03-30T17:00:55.704Z,60.59
2019-03-30T17:03:16.562Z,61.19
2019-03-30T17:05:53.238Z,61.86
2019-03-30T17:08:31.849Z,61.57
2019-03-30T17:11:04.831Z,61.80
2019-03-30T17:13:38.777Z,61.99
2019-03-30T17:16:15.028Z,62.18
2019-03-30T17:19:07.667Z,62.20
2019-03-30T17:21:43.767Z,62.45
2019-03-30T17:24:16.257Z,62.58
2019-03-30T17:26:48.977Z,62.59
2019-03-30T17:29:21.467Z,62.81
2019-03-30T17:31:54.257Z,63.20
2019-03-30T17:34:26.748Z,63.74
2019-03-30T17:36:59.298Z,64.25
2019-03-30T17:39:31.797Z,64.66
2019-03-30T17:42:04.397Z,64.78
2019-03-30T17:44:37.186Z,64.67
2019-03-30T17:47:09.847Z,64.79
2019-03-30T17:49:42.557Z,64.82
2019-03-30T17:52:15.437Z,64.84
2019-03-30T17:54:49.227Z,65.14
2019-03-30T17:57:21.698Z,65.74
2019-03-30T17:59:54.298Z,65.96
2019-03-30T18:02:32.517Z,66.04
2019-03-30T18:05:11.237Z,66.05
2019-03-30T18:07:45.386Z,65.94
2019-03-30T18:10:18.247Z,66.30
2019-03-30T18:12:51.008Z,66.48
2019-03-30T18:15:24.210Z,66.46
2019-03-30T18:17:57.064Z,66.57
2019-03-30T18:20:29.779Z,67.01
2019-03-30T18:23:02.558Z,67.09
2019-03-30T18:25:35.278Z,67.04
2019-03-30T18:28:07.741Z,67.03
2019-03-30T18:30:41.388Z,67.12
2019-03-30T18:33:13.917Z,67.34
2019-03-30T18:35:46.795Z,67.44
2019-03-30T18:38:21.957Z,67.54
2019-03-30T18:40:57.176Z,67.53
2019-03-30T18:43:30.926Z,67.62
2019-03-30T18:46:03.442Z,68.82
2019-03-30T18:48:36.324Z,69.43
2019-03-30T18:51:09.176Z,69.65
2019-03-30T18:53:42.816Z,69.71
2019-03-30T18:56:15.906Z,69.71
2019-03-30T18:58:48.614Z,69.91
2019-03-30T19:01:21.314Z,69.75
2019-03-30T19:03:53.956Z,70.26
2019-03-30T19:06:26.906Z,70.12
2019-03-30T19:08:59.676Z,69.72
2019-03-30T19:11:33.014Z,69.79
2019-03-30T19:14:06.020Z,69.77
2019-03-30T19:16:38.786Z,69.84
2019-03-30T19:19:11.369Z,69.85
2019-03-30T19:21:45.067Z,69.82
2019-03-30T19:24:18.544Z,70.14
2019-03-30T19:26:55.277Z,71.54
2019-03-30T19:29:28.227Z,72.35
2019-03-30T19:32:02.095Z,72.53
2019-03-30T19:34:35.176Z,72.02
2019-03-30T19:37:07.990Z,72.31
2019-03-30T19:39:40.806Z,72.61
2019-03-30T19:42:15.711Z,71.86
2019-03-30T19:44:48.374Z,71.64
2019-03-30T19:47:21.116Z,71.60
2019-03-30T19:49:54.026Z,71.65
2019-03-30T19:52:39.265Z,71.91
2019-03-30T19:55:00.906Z,72.06
2019-03-30T19:57:33.899Z,72.00
2019-03-30T20:00:07.616Z,72.10
2019-03-30T20:02:41.648Z,72.05
2019-03-30T20:05:14.735Z,72.32
2019-03-30T20:07:47.415Z,72.34
2019-03-30T20:10:20.719Z,72.20
2019-03-30T20:12:54.306Z,72.26
2019-03-30T20:15:27.275Z,72.16
2019-03-30T20:18:00.258Z,72.13
2019-03-30T20:20:33.079Z,72.18
2019-03-30T20:23:06.706Z,72.41
2019-03-30T20:25:39.520Z,72.54
2019-03-30T20:28:12.380Z,72.60
2019-03-30T20:30:45.074Z,73.38
2019-03-30T20:33:19.200Z,74.27
2019-03-30T20:35:52.006Z,74.95
2019-03-30T20:38:24.756Z,74.29
2019-03-30T20:40:57.480Z,74.12
2019-03-30T20:43:36.627Z,74.48
2019-03-30T20:46:09.416Z,75.18
2019-03-30T20:48:42.997Z,74.65
2019-03-30T20:51:17.206Z,75.10
2019-03-30T20:53:50.257Z,75.32
2019-03-30T20:56:23.235Z,75.44
2019-03-30T20:58:55.914Z,75.07
2019-03-30T21:01:28.977Z,74.92
2019-03-30T21:04:02.098Z,74.47
2019-03-30T21:06:35.014Z,74.50
2019-03-30T21:09:09.356Z,74.97
2019-03-30T21:11:42.396Z,74.87
2019-03-30T21:14:15.216Z,74.50
2019-03-30T21:16:49.140Z,74.69
2019-03-30T21:19:21.817Z,74.76
2019-03-30T21:21:54.416Z,74.65
2019-03-30T21:24:26.957Z,74.41
2019-03-30T21:26:59.647Z,74.39
2019-03-30T21:29:32.326Z,74.81
2019-03-30T21:32:05.836Z,75.32
2019-03-30T21:34:38.826Z,75.39
2019-03-30T21:37:11.726Z,75.36
2019-03-30T21:39:44.706Z,74.93
2019-03-30T21:42:17.287Z,74.71
2019-03-30T21:44:50.216Z,74.56
2019-03-30T21:47:22.936Z,75.33
2019-03-30T21:49:55.617Z,75.35
2019-03-30T21:52:28.238Z,75.13
2019-03-30T21:55:01.307Z,74.85
2019-03-30T21:57:35.006Z,75.06
2019-03-30T22:00:11.461Z,75.74
2019-03-30T22:02:44.150Z,75.88
2019-03-30T22:05:16.757Z,76.07
2019-03-30T22:07:49.726Z,76.83
2019-03-30T22:10:29.505Z,76.59
2019-03-30T22:13:02.726Z,76.60
2019-03-30T22:15:35.597Z,76.28
2019-03-30T22:18:08.246Z,76.35
2019-03-30T22:20:40.743Z,76.67
2019-03-30T22:23:13.583Z,76.96
2019-03-30T22:25:46.524Z,77.27
2019-03-30T22:28:19.384Z,77.19
2019-03-30T22:30:52.096Z,77.09
2019-03-30T22:33:24.750Z,76.99
2019-03-30T22:35:57.506Z,77.91
2019-03-30T22:38:30.113Z,78.27
2019-03-30T22:41:02.526Z,79.03
2019-03-30T22:43:35.176Z,78.98
2019-03-30T22:46:07.954Z,78.39
2019-03-30T22:48:40.754Z,78.48
2019-03-30T22:51:13.314Z,78.42
2019-03-30T22:53:46.065Z,78.51
2019-03-30T22:56:19.104Z,78.06
2019-03-30T22:58:52.586Z,77.78
2019-03-30T23:01:25.804Z,77.58
2019-03-30T23:03:58.505Z,77.76
2019-03-30T23:06:31.146Z,77.92
2019-03-30T23:09:05.023Z,78.30
2019-03-30T23:11:37.837Z,77.75
2019-03-30T23:14:10.298Z,77.86
2019-03-30T23:16:42.877Z,78.37
2019-03-30T23:19:15.538Z,78.11
2019-03-30T23:21:48.233Z,78.42
2019-03-30T23:24:20.779Z,78.81
2019-03-30T23:26:53.357Z,77.87
2019-03-30T23:29:26.014Z,78.31
2019-03-30T23:31:58.482Z,78.32
2019-03-30T23:34:30.999Z,78.70
2019-03-30T23:37:03.594Z,78.71
2019-03-30T23:39:36.444Z,78.49
2019-03-30T23:42:08.893Z,79.09
2019-03-30T23:44:41.534Z,78.41
2019-03-30T23:47:14.327Z,77.99
2019-03-30T23:49:46.936Z,78.11
2019-03-30T23:52:19.340Z,77.83
2019-03-30T23:54:51.855Z,78.24
2019-03-30T23:57:24.387Z,78.74
2019-03-30T23:59:56.975Z,78.33
